createdAt,value
2017-11-07T00:00:22.862Z,99.66
2017-11-07T00:01:22.829Z,99.48
2017-11-07T00:02:22.806Z,99.38
2017-11-07T00:03:22.785Z,99.38
2017-11-07T00:04:22.758Z,99.48
2017-11-07T00:05:22.734Z,99.48
2017-11-07T00:06:22.708Z,99.57
2017-11-07T00:07:22.684Z,99.29
2017-11-07T00:08:22.657Z,99.19
2017-11-07T00:09:22.645Z,99.01
2017-11-07T00:10:22.605Z,99.10
2017-11-07T00:11:22.620Z,99.01
2017-11-07T00:12:22.568Z,99.10
2017-11-07T00:13:22.549Z,99.19
2017-11-07T00:14:22.523Z,99.19
2017-11-07T00:15:22.495Z,99.01
2017-11-07T00:16:22.472Z,98.91
2017-11-07T00:17:22.449Z,98.82
2017-11-07T00:18:22.428Z,99.19
2017-11-07T00:19:22.398Z,99.19
2017-11-07T00:20:22.370Z,99.10
2017-11-07T00:21:22.347Z,99.19
2017-11-07T00:22:22.322Z,99.01
2017-11-07T00:23:22.292Z,99.10
2017-11-07T00:24:22.276Z,99.01
2017-11-07T00:25:22.268Z,99.10
2017-11-07T00:26:22.242Z,99.10
2017-11-07T00:27:22.197Z,98.82
2017-11-07T00:28:22.184Z,99.01
2017-11-07T00:29:24.666Z,99.29
2017-11-07T00:30:22.128Z,99.10
2017-11-07T00:31:22.114Z,99.10
2017-11-07T00:32:22.085Z,99.01
2017-11-07T00:33:22.056Z,99.01
2017-11-07T00:34:22.047Z,99.01
2017-11-07T00:35:22.011Z,99.01
2017-11-07T00:36:21.985Z,99.01
2017-11-07T00:37:21.961Z,99.10
2017-11-07T00:38:21.952Z,99.01
2017-11-07T00:39:21.930Z,99.19
2017-11-07T00:40:22.653Z,99.19
2017-11-07T00:41:21.867Z,99.52
2017-11-07T00:42:21.852Z,99.52
2017-11-07T00:43:21.820Z,99.43
2017-11-07T00:44:21.796Z,99.43
2017-11-07T00:45:21.767Z,99.62
2017-11-07T00:46:21.757Z,99.05
2017-11-07T00:47:21.725Z,99.52
2017-11-07T00:48:21.694Z,99.24
2017-11-07T00:49:21.680Z,99.52
2017-11-07T00:50:21.652Z,99.52
2017-11-07T00:51:21.619Z,99.43
2017-11-07T00:52:21.602Z,99.05
2017-11-07T00:53:21.572Z,98.68
2017-11-07T00:54:21.547Z,98.86
2017-11-07T00:55:21.534Z,98.68
2017-11-07T00:56:21.508Z,98.30
2017-11-07T00:57:21.488Z,98.77
2017-11-07T00:58:21.456Z,98.77
2017-11-07T00:59:21.438Z,98.49
2017-11-07T01:00:21.406Z,98.77
2017-11-07T01:01:21.419Z,98.20
2017-11-07T01:02:21.360Z,98.30
2017-11-07T01:03:21.337Z,98.39
2017-11-07T01:04:21.334Z,98.20
2017-11-07T01:05:21.283Z,98.49
2017-11-07T01:06:21.276Z,98.49
2017-11-07T01:07:21.241Z,98.20
2017-11-07T01:08:21.226Z,98.30
2017-11-07T01:09:21.195Z,98.39
2017-11-07T01:10:21.162Z,98.58
2017-11-07T01:11:21.148Z,98.30
2017-11-07T01:12:21.124Z,98.49
2017-11-07T01:13:21.091Z,98.11
2017-11-07T01:14:21.079Z,98.20
2017-11-07T01:15:21.051Z,98.11
2017-11-07T01:16:21.032Z,98.49
2017-11-07T01:17:21.022Z,98.58
2017-11-07T01:18:20.978Z,98.20
2017-11-07T01:19:20.956Z,98.20
2017-11-07T01:20:20.931Z,98.49
2017-11-07T01:21:20.906Z,98.68
2017-11-07T01:22:20.875Z,98.39
2017-11-07T01:23:20.857Z,98.30
2017-11-07T01:24:20.837Z,98.11
2017-11-07T01:25:20.807Z,98.11
2017-11-07T01:26:20.794Z,98.30
2017-11-07T01:27:20.756Z,98.01
2017-11-07T01:28:20.762Z,98.20
2017-11-07T01:29:20.720Z,98.20
2017-11-07T01:30:20.694Z,98.20
2017-11-07T01:31:20.662Z,98.39
2017-11-07T01:32:20.644Z,98.11
2017-11-07T01:33:20.615Z,98.20
2017-11-07T01:34:20.607Z,98.11
2017-11-07T01:35:20.575Z,98.11
2017-11-07T01:36:20.554Z,98.11
2017-11-07T01:37:20.520Z,98.39
2017-11-07T01:38:20.511Z,98.20
2017-11-07T01:39:20.477Z,98.68
2017-11-07T01:40:20.450Z,98.49
2017-11-07T01:41:20.437Z,98.30
2017-11-07T01:42:20.430Z,98.30
2017-11-07T01:43:20.375Z,98.49
2017-11-07T01:44:20.360Z,98.68
2017-11-07T01:45:20.349Z,97.63
2017-11-07T01:46:20.327Z,97.92
2017-11-07T01:47:20.290Z,97.82
2017-11-07T01:48:20.256Z,98.49
2017-11-07T01:49:20.257Z,98.30
2017-11-07T01:50:20.219Z,98.39
2017-11-07T01:51:20.188Z,98.49
2017-11-07T01:52:20.185Z,98.25
2017-11-07T01:53:20.138Z,98.11
2017-11-07T01:54:20.120Z,98.11
2017-11-07T01:55:20.095Z,98.39
2017-11-07T01:56:20.068Z,98.49
2017-11-07T01:57:20.043Z,98.77
2017-11-07T01:58:20.019Z,99.05
2017-11-07T01:59:20.009Z,98.77
2017-11-07T02:00:19.977Z,99.33
2017-11-07T02:01:19.959Z,99.05
2017-11-07T02:02:19.929Z,99.81
2017-11-07T02:03:19.907Z,98.86
2017-11-07T02:04:19.888Z,99.05
2017-11-07T02:05:19.861Z,99.33
2017-11-07T02:06:19.829Z,99.33
2017-11-07T02:07:19.811Z,99.24
2017-11-07T02:08:19.780Z,99.24
2017-11-07T02:09:19.776Z,99.43
2017-11-07T02:10:19.740Z,99.43
2017-11-07T02:11:19.710Z,99.33
2017-11-07T02:12:19.693Z,99.39
2017-11-07T02:13:19.663Z,99.20
2017-11-07T02:14:19.663Z,99.10
2017-11-07T02:15:19.623Z,99.10
2017-11-07T02:16:19.604Z,99.20
2017-11-07T02:17:19.593Z,98.96
2017-11-07T02:18:19.550Z,99.39
2017-11-07T02:19:19.533Z,99.29
2017-11-07T02:20:19.498Z,98.91
2017-11-07T02:21:19.480Z,99.20
2017-11-07T02:22:19.466Z,99.15
2017-11-07T02:23:19.431Z,99.20
2017-11-07T02:24:19.418Z,99.10
2017-11-07T02:25:19.381Z,98.86
2017-11-07T02:26:19.359Z,98.86
2017-11-07T02:27:19.335Z,99.58
2017-11-07T02:28:19.317Z,99.67
2017-11-07T02:29:19.287Z,99.29
2017-11-07T02:30:19.261Z,99.58
2017-11-07T02:31:19.243Z,99.48
2017-11-07T02:32:19.225Z,99.62
2017-11-07T02:33:19.204Z,99.62
2017-11-07T02:34:19.172Z,99.81
2017-11-07T02:35:19.141Z,99.62
2017-11-07T02:36:19.122Z,99.62
2017-11-07T02:37:19.100Z,99.99
2017-11-07T02:38:19.089Z,99.90
2017-11-07T02:39:19.052Z,99.99
2017-11-07T02:40:19.022Z,99.99
2017-11-07T02:41:19.006Z,99.99
2017-11-07T02:42:18.980Z,99.99
2017-11-07T02:43:18.946Z,99.99
2017-11-07T02:44:18.949Z,99.99
2017-11-07T02:45:18.908Z,99.99
2017-11-07T02:46:18.886Z,99.99
2017-11-07T02:47:18.856Z,99.99
2017-11-07T02:48:18.842Z,99.99
2017-11-07T02:49:18.810Z,99.99
2017-11-07T02:50:18.786Z,99.99
2017-11-07T02:51:18.779Z,99.99
2017-11-07T02:52:18.741Z,99.99
2017-11-07T02:53:18.715Z,99.99
2017-11-07T02:54:18.698Z,99.99
2017-11-07T02:55:18.670Z,99.99
2017-11-07T02:56:18.663Z,99.99
2017-11-07T02:57:18.617Z,99.99
2017-11-07T02:58:18.592Z,99.99
2017-11-07T02:59:18.588Z,99.99
2017-11-07T03:00:18.543Z,99.99
2017-11-07T03:01:18.528Z,99.99
2017-11-07T03:02:18.508Z,99.99
2017-11-07T03:03:18.480Z,99.99
2017-11-07T03:04:18.460Z,99.99
2017-11-07T03:05:18.425Z,99.99
2017-11-07T03:06:18.405Z,99.99
2017-11-07T03:07:18.385Z,99.99
2017-11-07T03:08:18.370Z,99.99
2017-11-07T03:09:18.345Z,99.99
2017-11-07T03:10:18.312Z,99.99
2017-11-07T03:11:18.293Z,99.99
2017-11-07T03:12:18.264Z,99.99
2017-11-07T03:13:18.235Z,99.99
2017-11-07T03:14:18.235Z,99.99
2017-11-07T03:15:18.199Z,99.99
2017-11-07T03:16:18.176Z,99.99
2017-11-07T03:17:18.142Z,99.99
2017-11-07T03:18:18.122Z,99.99
2017-11-07T03:19:18.104Z,99.99
2017-11-07T03:20:18.076Z,99.99
2017-11-07T03:21:18.058Z,99.99
2017-11-07T03:22:18.033Z,99.99
2017-11-07T03:23:18.000Z,99.99
2017-11-07T03:24:17.991Z,99.99
2017-11-07T03:25:17.976Z,99.99
2017-11-07T03:26:17.936Z,99.99
2017-11-07T03:27:17.902Z,99.99
2017-11-07T03:28:17.892Z,99.99
2017-11-07T03:29:17.859Z,99.99
2017-11-07T03:30:17.848Z,99.99
2017-11-07T03:31:17.830Z,99.99
2017-11-07T03:32:17.795Z,99.99
2017-11-07T03:33:17.756Z,99.99
2017-11-07T03:34:17.746Z,99.99
2017-11-07T03:35:17.708Z,99.99
2017-11-07T03:36:17.683Z,99.99
2017-11-07T03:37:17.657Z,99.99
2017-11-07T03:38:17.660Z,99.99
2017-11-07T03:39:17.628Z,99.99
2017-11-07T03:40:17.592Z,99.99
2017-11-07T03:41:17.574Z,99.99
2017-11-07T03:42:17.542Z,99.99
2017-11-07T03:43:17.513Z,99.99
2017-11-07T03:44:17.497Z,99.99
2017-11-07T03:45:17.483Z,99.99
2017-11-07T03:46:17.450Z,99.99
2017-11-07T03:47:17.430Z,99.99
2017-11-07T03:48:17.414Z,99.99
2017-11-07T03:49:17.376Z,99.99
2017-11-07T03:50:17.352Z,99.99
2017-11-07T03:51:17.331Z,99.99
2017-11-07T03:52:17.302Z,99.99
2017-11-07T03:53:17.273Z,99.99
2017-11-07T03:54:17.262Z,99.99
2017-11-07T03:55:17.257Z,99.99
2017-11-07T03:56:17.216Z,99.99
2017-11-07T03:57:17.202Z,99.99
2017-11-07T03:58:17.178Z,99.99
2017-11-07T03:59:17.140Z,99.99
2017-11-07T04:00:17.119Z,99.99
2017-11-07T04:01:17.096Z,99.99
2017-11-07T04:02:17.065Z,99.99
2017-11-07T04:03:17.065Z,99.99
2017-11-07T04:04:17.019Z,99.99
2017-11-07T04:05:17.014Z,99.99
2017-11-07T04:06:16.976Z,99.99
2017-11-07T04:07:16.948Z,99.99
2017-11-07T04:08:16.939Z,99.99
2017-11-07T04:09:16.903Z,99.99
2017-11-07T04:10:16.879Z,99.99
2017-11-07T04:11:16.863Z,99.99
2017-11-07T04:12:16.837Z,99.99
2017-11-07T04:13:16.807Z,99.99
2017-11-07T04:14:16.797Z,99.99
2017-11-07T04:15:16.761Z,99.99
2017-11-07T04:16:16.737Z,99.99
2017-11-07T04:17:16.736Z,99.99
2017-11-07T04:18:16.691Z,99.99
2017-11-07T04:19:16.671Z,99.99
2017-11-07T04:20:16.640Z,99.99
2017-11-07T04:21:16.624Z,99.99
2017-11-07T04:22:16.592Z,99.99
2017-11-07T04:23:16.571Z,99.99
2017-11-07T04:24:16.540Z,99.99
2017-11-07T04:25:16.539Z,99.99
2017-11-07T04:26:16.505Z,99.99
2017-11-07T04:27:16.483Z,99.99
2017-11-07T04:28:16.454Z,99.99
2017-11-07T04:29:16.430Z,99.99
2017-11-07T04:30:16.403Z,99.99
2017-11-07T04:31:16.382Z,99.99
2017-11-07T04:32:16.384Z,99.99
2017-11-07T04:33:16.336Z,99.99
2017-11-07T04:34:16.308Z,99.99
2017-11-07T04:35:16.300Z,99.99
2017-11-07T04:36:16.259Z,99.99
2017-11-07T04:37:16.239Z,99.99
2017-11-07T04:38:16.224Z,99.99
2017-11-07T04:39:16.205Z,99.99
2017-11-07T04:40:16.166Z,99.99
2017-11-07T04:41:16.152Z,99.99
2017-11-07T04:42:16.139Z,99.99
2017-11-07T04:43:16.093Z,99.99
2017-11-07T04:44:16.090Z,99.99
2017-11-07T04:45:16.068Z,99.99
2017-11-07T04:46:16.028Z,99.99
2017-11-07T04:47:16.009Z,99.99
2017-11-07T04:48:15.979Z,99.99
2017-11-07T04:49:15.970Z,99.99
2017-11-07T04:50:15.939Z,99.99
2017-11-07T04:51:15.911Z,99.99
2017-11-07T04:52:15.887Z,99.99
2017-11-07T04:53:15.865Z,99.99
2017-11-07T04:54:15.846Z,99.99
2017-11-07T04:55:15.826Z,99.99
2017-11-07T04:56:15.791Z,99.99
2017-11-07T04:57:15.771Z,99.99
2017-11-07T04:58:15.748Z,99.99
2017-11-07T04:59:15.743Z,99.99
2017-11-07T05:00:15.707Z,99.99
2017-11-07T05:01:15.679Z,99.99
2017-11-07T05:02:15.653Z,99.99
2017-11-07T05:03:15.639Z,99.91
2017-11-07T05:04:15.615Z,99.99
2017-11-07T05:05:15.584Z,99.91
2017-11-07T05:06:15.574Z,99.99
2017-11-07T05:07:15.546Z,99.82
2017-11-07T05:08:15.522Z,99.72
2017-11-07T05:09:15.494Z,99.63
2017-11-07T05:10:15.469Z,99.53
2017-11-07T05:11:15.453Z,99.34
2017-11-07T05:12:15.428Z,99.06
2017-11-07T05:13:15.397Z,99.44
2017-11-07T05:14:15.376Z,99.44
2017-11-07T05:15:15.354Z,99.15
2017-11-07T05:16:15.360Z,98.87
2017-11-07T05:17:15.306Z,98.77
2017-11-07T05:18:15.291Z,98.58
2017-11-07T05:19:15.261Z,98.68
2017-11-07T05:20:15.278Z,98.82
2017-11-07T05:21:15.218Z,98.07
2017-11-07T05:22:15.195Z,98.39
2017-11-07T05:23:15.161Z,98.21
2017-11-07T05:24:15.148Z,98.07
2017-11-07T05:25:15.119Z,97.64
2017-11-07T05:26:15.111Z,97.54
2017-11-07T05:27:15.076Z,98.58
2017-11-07T05:28:15.055Z,97.73
2017-11-07T05:29:15.034Z,97.83
2017-11-07T05:30:15.024Z,98.44
2017-11-07T05:31:15.000Z,97.78
2017-11-07T05:32:14.958Z,98.16
2017-11-07T05:33:14.944Z,98.25
2017-11-07T05:34:14.909Z,97.40
2017-11-07T05:35:14.890Z,98.44
2017-11-07T05:36:14.895Z,97.59
2017-11-07T05:37:14.858Z,97.73
2017-11-07T05:38:14.821Z,97.26
2017-11-07T05:39:14.796Z,97.69
2017-11-07T05:40:14.773Z,96.97
2017-11-07T05:41:14.753Z,96.88
2017-11-07T05:42:14.734Z,97.64
2017-11-07T05:43:14.718Z,97.35
2017-11-07T05:44:14.678Z,97.54
2017-11-07T05:45:14.686Z,97.35
2017-11-07T05:46:14.642Z,97.73
2017-11-07T05:47:14.616Z,97.54
2017-11-07T05:48:14.595Z,97.64
2017-11-07T05:49:14.562Z,97.54
2017-11-07T05:50:14.535Z,97.45
2017-11-07T05:51:14.515Z,97.26
2017-11-07T05:52:14.489Z,97.26
2017-11-07T05:53:14.495Z,97.45
2017-11-07T05:54:14.449Z,97.26
2017-11-07T05:55:14.430Z,97.16
2017-11-07T05:56:14.400Z,97.45
2017-11-07T05:57:14.378Z,97.73
2017-11-07T05:58:14.360Z,97.83
2017-11-07T05:59:14.328Z,97.83
2017-11-07T06:00:14.332Z,97.45
2017-11-07T06:01:14.286Z,97.54
2017-11-07T06:02:14.262Z,97.26
2017-11-07T06:03:14.246Z,97.78
2017-11-07T06:04:14.218Z,97.83
2017-11-07T06:05:14.193Z,97.45
2017-11-07T06:06:14.184Z,97.50
2017-11-07T06:07:14.147Z,97.97
2017-11-07T06:08:14.142Z,98.07
2017-11-07T06:09:14.099Z,97.78
2017-11-07T06:10:14.082Z,97.69
2017-11-07T06:11:14.049Z,97.78
2017-11-07T06:12:14.026Z,97.69
2017-11-07T06:13:14.013Z,97.78
2017-11-07T06:14:13.989Z,97.40
2017-11-07T06:15:13.984Z,97.50
2017-11-07T06:16:13.936Z,98.35
2017-11-07T06:17:13.914Z,97.69
2017-11-07T06:18:13.888Z,97.31
2017-11-07T06:19:13.868Z,97.78
2017-11-07T06:20:13.834Z,97.78
2017-11-07T06:21:13.818Z,97.31
2017-11-07T06:22:13.793Z,97.69
2017-11-07T06:23:13.770Z,97.40
2017-11-07T06:24:13.770Z,97.69
2017-11-07T06:25:13.734Z,97.78
2017-11-07T06:26:13.698Z,97.69
2017-11-07T06:27:13.689Z,97.88
2017-11-07T06:28:13.673Z,97.78
2017-11-07T06:29:13.638Z,97.88
2017-11-07T06:30:13.616Z,97.88
2017-11-07T06:31:13.594Z,97.50
2017-11-07T06:32:13.571Z,97.40
2017-11-07T06:33:13.565Z,97.69
2017-11-07T06:34:13.515Z,97.78
2017-11-07T06:35:13.505Z,97.31
2017-11-07T06:36:13.470Z,97.40
2017-11-07T06:37:13.450Z,97.78
2017-11-07T06:38:13.441Z,97.69
2017-11-07T06:39:13.414Z,97.31
2017-11-07T06:40:13.394Z,97.50
2017-11-07T06:41:13.352Z,97.59
2017-11-07T06:42:13.332Z,97.78
2017-11-07T06:43:13.308Z,97.40
2017-11-07T06:44:13.290Z,97.31
2017-11-07T06:45:13.279Z,97.88
2017-11-07T06:46:13.246Z,97.78
2017-11-07T06:47:13.224Z,97.31
2017-11-07T06:48:13.196Z,97.31
2017-11-07T06:49:13.163Z,96.92
2017-11-07T06:50:13.149Z,97.69
2017-11-07T06:51:13.116Z,97.69
2017-11-07T06:52:13.102Z,97.78
2017-11-07T06:53:13.080Z,97.88
2017-11-07T06:54:13.074Z,97.40
2017-11-07T06:55:13.032Z,97.50
2017-11-07T06:56:13.005Z,97.40
2017-11-07T06:57:12.993Z,97.31
2017-11-07T06:58:12.958Z,97.50
2017-11-07T06:59:12.940Z,97.21
2017-11-07T07:00:12.912Z,97.50
2017-11-07T07:01:12.888Z,97.78
2017-11-07T07:02:12.868Z,97.69
2017-11-07T07:03:12.855Z,97.40
2017-11-07T07:04:12.828Z,97.50
2017-11-07T07:05:12.797Z,97.50
2017-11-07T07:06:12.780Z,97.50
2017-11-07T07:07:12.753Z,97.69
2017-11-07T07:08:12.734Z,97.69
2017-11-07T07:09:12.709Z,97.50
2017-11-07T07:10:12.704Z,97.21
2017-11-07T07:11:12.667Z,97.69
2017-11-07T07:12:12.637Z,97.69
2017-11-07T07:13:12.615Z,97.59
2017-11-07T07:14:12.597Z,96.83
2017-11-07T07:15:12.568Z,96.83
2017-11-07T07:16:12.541Z,97.02
2017-11-07T07:17:12.525Z,96.92
2017-11-07T07:18:12.508Z,97.31
2017-11-07T07:19:12.492Z,97.21
2017-11-07T07:20:12.489Z,97.02
2017-11-07T07:21:12.459Z,96.83
2017-11-07T07:22:12.410Z,97.59
2017-11-07T07:23:12.413Z,97.97
2017-11-07T07:24:12.356Z,97.78
2017-11-07T07:25:12.335Z,97.78
2017-11-07T07:26:12.319Z,97.69
2017-11-07T07:27:12.296Z,97.78
2017-11-07T07:28:12.279Z,97.88
2017-11-07T07:29:12.254Z,97.78
2017-11-07T07:30:12.223Z,97.78
2017-11-07T07:31:12.201Z,97.88
2017-11-07T07:32:12.197Z,97.59
2017-11-07T07:33:12.154Z,97.59
2017-11-07T07:34:12.131Z,97.02
2017-11-07T07:35:12.112Z,96.97
2017-11-07T07:36:12.086Z,97.12
2017-11-07T07:37:12.065Z,96.83
2017-11-07T07:38:12.039Z,97.21
2017-11-07T07:39:12.019Z,96.97
2017-11-07T07:40:12.007Z,97.07
2017-11-07T07:41:11.978Z,97.26
2017-11-07T07:42:11.950Z,96.97
2017-11-07T07:43:11.925Z,96.69
2017-11-07T07:44:11.908Z,96.69
2017-11-07T07:45:11.881Z,96.88
2017-11-07T07:46:11.853Z,96.59
2017-11-07T07:47:11.854Z,96.88
2017-11-07T07:48:11.810Z,96.69
2017-11-07T07:49:11.791Z,96.31
2017-11-07T07:50:11.781Z,96.97
2017-11-07T07:51:11.741Z,96.41
2017-11-07T07:52:11.721Z,96.12
2017-11-07T07:53:11.693Z,96.22
2017-11-07T07:54:11.680Z,96.31
2017-11-07T07:55:11.658Z,95.93
2017-11-07T07:56:11.626Z,96.12
2017-11-07T07:57:11.599Z,96.12
2017-11-07T07:58:11.586Z,96.03
2017-11-07T07:59:11.569Z,96.41
2017-11-07T08:00:11.533Z,96.50
2017-11-07T08:01:11.527Z,96.03
2017-11-07T08:02:11.496Z,96.41
2017-11-07T08:03:11.470Z,96.22
2017-11-07T08:04:11.449Z,96.22
2017-11-07T08:05:11.427Z,95.74
2017-11-07T08:06:11.398Z,95.46
2017-11-07T08:07:11.382Z,95.98
2017-11-07T08:08:11.362Z,95.55
2017-11-07T08:09:11.331Z,95.22
2017-11-07T08:10:11.321Z,95.12
2017-11-07T08:11:11.295Z,95.03
2017-11-07T08:12:11.283Z,95.03
2017-11-07T08:13:11.246Z,95.12
2017-11-07T08:14:11.229Z,95.51
2017-11-07T08:15:11.205Z,95.31
2017-11-07T08:16:11.171Z,95.22
2017-11-07T08:17:11.160Z,95.03
2017-11-07T08:18:11.133Z,95.12
2017-11-07T08:19:11.194Z,94.84
2017-11-07T08:20:11.093Z,94.56
2017-11-07T08:21:11.076Z,94.27
2017-11-07T08:22:11.047Z,94.65
2017-11-07T08:23:11.028Z,94.37
2017-11-07T08:24:10.997Z,94.27
2017-11-07T08:25:10.978Z,94.65
2017-11-07T08:26:10.949Z,94.27
2017-11-07T08:27:10.937Z,94.37
2017-11-07T08:28:10.913Z,94.08
2017-11-07T08:29:10.883Z,94.27
2017-11-07T08:30:10.865Z,94.18
2017-11-07T08:31:10.863Z,93.75
2017-11-07T08:32:10.819Z,93.56
2017-11-07T08:33:10.800Z,93.65
2017-11-07T08:34:10.783Z,93.46
2017-11-07T08:35:10.756Z,93.56
2017-11-07T08:36:10.740Z,93.56
2017-11-07T08:37:10.712Z,93.75
2017-11-07T08:38:10.686Z,93.27
2017-11-07T08:39:10.662Z,93.08
2017-11-07T08:40:10.638Z,92.99
2017-11-07T08:41:10.624Z,93.18
2017-11-07T08:42:10.592Z,92.90
2017-11-07T08:43:10.590Z,92.80
2017-11-07T08:44:10.561Z,92.80
2017-11-07T08:45:10.529Z,92.32
2017-11-07T08:46:10.506Z,92.51
2017-11-07T08:47:10.495Z,92.23
2017-11-07T08:48:10.475Z,91.66
2017-11-07T08:49:10.447Z,91.66
2017-11-07T08:50:10.419Z,91.71
2017-11-07T08:51:10.401Z,91.89
2017-11-07T08:52:10.375Z,91.23
2017-11-07T08:53:10.363Z,91.33
2017-11-07T08:54:10.376Z,91.61
2017-11-07T08:55:10.314Z,91.33
2017-11-07T08:56:10.299Z,90.56
2017-11-07T08:57:10.262Z,90.56
2017-11-07T08:58:10.247Z,90.75
2017-11-07T08:59:10.232Z,90.19
2017-11-07T09:00:10.192Z,89.90
2017-11-07T09:01:10.173Z,89.04
2017-11-07T09:02:10.161Z,89.33
2017-11-07T09:03:10.147Z,89.42
2017-11-07T09:04:10.106Z,88.95
2017-11-07T09:05:10.087Z,88.76
2017-11-07T09:06:10.069Z,89.09
2017-11-07T09:07:10.053Z,89.37
2017-11-07T09:08:10.029Z,89.00
2017-11-07T09:09:10.000Z,88.52
2017-11-07T09:10:09.980Z,88.33
2017-11-07T09:11:09.974Z,87.95
2017-11-07T09:12:09.933Z,87.80
2017-11-07T09:13:09.909Z,87.04
2017-11-07T09:14:09.893Z,86.76
2017-11-07T09:15:09.874Z,86.57
2017-11-07T09:16:09.851Z,86.18
2017-11-07T09:17:09.834Z,85.33
2017-11-07T09:18:09.810Z,85.52
2017-11-07T09:19:09.783Z,85.42
2017-11-07T09:20:09.794Z,85.24
2017-11-07T09:21:09.749Z,85.24
2017-11-07T09:22:09.728Z,84.33
2017-11-07T09:23:09.724Z,84.99
2017-11-07T09:24:09.677Z,83.94
2017-11-07T09:25:09.662Z,82.80
2017-11-07T09:26:09.649Z,83.47
2017-11-07T09:27:09.626Z,83.09
2017-11-07T09:28:09.596Z,83.47
2017-11-07T09:29:09.576Z,83.70
2017-11-07T09:30:09.551Z,83.47
2017-11-07T09:31:09.545Z,82.08
2017-11-07T09:32:09.559Z,81.98
2017-11-07T09:33:09.494Z,81.03
2017-11-07T09:34:09.470Z,81.36
2017-11-07T09:35:09.452Z,80.88
2017-11-07T09:36:09.425Z,79.88
2017-11-07T09:37:09.406Z,78.10
2017-11-07T09:38:09.386Z,77.15
2017-11-07T09:39:09.385Z,75.18
2017-11-07T09:40:09.348Z,74.84
2017-11-07T09:41:09.339Z,73.00
2017-11-07T09:42:09.324Z,71.22
2017-11-07T09:43:09.288Z,68.33
2017-11-07T09:44:09.264Z,65.14
2017-11-07T09:45:09.242Z,62.17
2017-11-07T09:46:09.227Z,61.34
2017-11-07T09:47:09.264Z,61.21
2017-11-07T09:48:09.196Z,60.54
2017-11-07T09:49:09.175Z,60.44
2017-11-07T09:50:09.157Z,60.09
2017-11-07T09:51:09.130Z,59.04
2017-11-07T09:52:09.115Z,58.30
2017-11-07T09:53:09.102Z,57.92
2017-11-07T09:54:09.078Z,58.04
2017-11-07T09:55:09.065Z,55.93
2017-11-07T09:56:09.061Z,56.31
2017-11-07T09:57:09.029Z,56.89
2017-11-07T09:58:09.034Z,56.86
2017-11-07T09:59:08.991Z,56.45
2017-11-07T10:00:08.980Z,56.71
2017-11-07T10:01:08.970Z,58.12
2017-11-07T10:02:08.958Z,58.95
2017-11-07T10:03:08.940Z,59.33
2017-11-07T10:04:08.913Z,60.26
2017-11-07T10:05:08.907Z,61.57
2017-11-07T10:06:08.882Z,62.52
2017-11-07T10:07:08.871Z,63.73
2017-11-07T10:08:08.840Z,64.22
2017-11-07T10:09:08.844Z,63.64
2017-11-07T10:10:08.815Z,64.88
2017-11-07T10:11:08.801Z,65.33
2017-11-07T10:12:08.779Z,65.61
2017-11-07T10:13:08.762Z,66.63
2017-11-07T10:14:08.740Z,66.92
2017-11-07T10:15:08.763Z,67.49
2017-11-07T10:16:08.709Z,67.97
2017-11-07T10:17:08.678Z,68.06
2017-11-07T10:18:08.686Z,68.35
2017-11-07T10:19:08.645Z,68.44
2017-11-07T10:20:08.640Z,68.63
2017-11-07T10:21:08.610Z,69.37
2017-11-07T10:22:08.611Z,69.56
2017-11-07T10:23:08.598Z,69.65
2017-11-07T10:24:08.556Z,69.46
2017-11-07T10:25:08.536Z,69.84
2017-11-07T10:26:08.521Z,69.43
2017-11-07T10:27:08.538Z,70.19
2017-11-07T10:28:08.483Z,70.95
2017-11-07T10:29:08.458Z,70.86
2017-11-07T10:30:08.452Z,72.44
2017-11-07T10:31:08.421Z,72.34
2017-11-07T10:32:08.403Z,73.30
2017-11-07T10:33:08.384Z,74.02
2017-11-07T10:34:08.377Z,74.21
2017-11-07T10:35:08.359Z,74.79
2017-11-07T10:36:08.330Z,75.26
2017-11-07T10:37:08.317Z,75.79
2017-11-07T10:38:08.305Z,76.46
2017-11-07T10:39:08.291Z,76.56
2017-11-07T10:40:08.257Z,76.84
2017-11-07T10:41:08.255Z,77.22
2017-11-07T10:42:08.235Z,77.42
2017-11-07T10:43:08.213Z,77.80
2017-11-07T10:44:08.173Z,78.08
2017-11-07T10:45:08.159Z,78.27
2017-11-07T10:46:08.140Z,78.46
2017-11-07T10:47:08.118Z,78.56
2017-11-07T10:48:08.101Z,78.94
2017-11-07T10:49:08.075Z,78.46
2017-11-07T10:50:08.068Z,78.37
2017-11-07T10:51:08.038Z,78.03
2017-11-07T10:52:08.009Z,77.30
2017-11-07T10:53:07.986Z,76.35
2017-11-07T10:54:07.980Z,76.44
2017-11-07T10:55:07.965Z,75.49
2017-11-07T10:56:07.940Z,75.30
2017-11-07T10:57:07.924Z,74.92
2017-11-07T10:58:07.906Z,74.73
2017-11-07T10:59:07.878Z,75.30
2017-11-07T11:00:07.857Z,74.77
2017-11-07T11:01:07.832Z,74.63
2017-11-07T11:02:07.828Z,74.63
2017-11-07T11:03:07.786Z,75.11
2017-11-07T11:04:07.774Z,75.26
2017-11-07T11:05:07.758Z,76.79
2017-11-07T11:06:07.736Z,77.42
2017-11-07T11:07:07.717Z,77.51
2017-11-07T11:08:07.697Z,78.27
2017-11-07T11:09:07.686Z,79.19
2017-11-07T11:10:07.667Z,79.75
2017-11-07T11:11:07.628Z,80.61
2017-11-07T11:12:08.309Z,80.52
2017-11-07T11:13:07.622Z,80.90
2017-11-07T11:14:07.579Z,80.90
2017-11-07T11:15:07.553Z,81.37
2017-11-07T11:16:07.526Z,80.99
2017-11-07T11:17:07.569Z,81.47
2017-11-07T11:18:07.493Z,81.76
2017-11-07T11:19:07.488Z,81.85
2017-11-07T11:20:07.446Z,80.99
2017-11-07T11:21:07.441Z,81.47
2017-11-07T11:22:07.435Z,81.28
2017-11-07T11:23:07.400Z,80.42
2017-11-07T11:24:07.386Z,80.42
2017-11-07T11:25:07.341Z,80.90
2017-11-07T11:26:07.324Z,80.80
2017-11-07T11:27:07.321Z,80.71
2017-11-07T11:28:07.292Z,81.18
2017-11-07T11:29:07.263Z,81.37
2017-11-07T11:30:07.276Z,81.56
2017-11-07T11:31:07.234Z,81.47
2017-11-07T11:32:07.262Z,82.04
2017-11-07T11:33:07.196Z,82.04
2017-11-07T11:34:07.185Z,82.14
2017-11-07T11:35:07.151Z,81.85
2017-11-07T11:36:07.131Z,81.85
2017-11-07T11:37:07.099Z,81.09
2017-11-07T11:38:07.092Z,80.90
2017-11-07T11:39:07.066Z,81.56
2017-11-07T11:40:07.034Z,81.95
2017-11-07T11:41:07.016Z,82.23
2017-11-07T11:42:07.005Z,81.76
2017-11-07T11:43:06.990Z,81.85
2017-11-07T11:44:06.976Z,82.14
2017-11-07T11:45:06.931Z,82.51
2017-11-07T11:46:06.925Z,82.70
2017-11-07T11:47:06.914Z,82.42
2017-11-07T11:48:06.865Z,81.95
2017-11-07T11:49:06.851Z,82.23
2017-11-07T11:50:06.842Z,82.70
2017-11-07T11:51:06.808Z,82.14
2017-11-07T11:52:06.781Z,82.99
2017-11-07T11:53:06.765Z,83.09
2017-11-07T11:54:06.761Z,82.32
2017-11-07T11:55:06.742Z,82.61
2017-11-07T11:56:06.705Z,82.99
2017-11-07T11:57:06.721Z,82.57
2017-11-07T11:58:06.678Z,83.04
2017-11-07T11:59:07.323Z,82.48
2017-11-07T12:00:06.608Z,83.04
2017-11-07T12:01:06.605Z,83.04
2017-11-07T12:02:06.629Z,83.42
2017-11-07T12:03:06.555Z,83.81
2017-11-07T12:04:06.541Z,84.00
2017-11-07T12:05:06.531Z,84.19
2017-11-07T12:06:06.491Z,84.28
2017-11-07T12:07:06.476Z,84.81
2017-11-07T12:08:06.505Z,84.05
2017-11-07T12:09:06.428Z,84.14
2017-11-07T12:10:06.420Z,84.91
2017-11-07T12:11:06.388Z,85.10
2017-11-07T12:12:06.361Z,85.47
2017-11-07T12:13:06.335Z,85.28
2017-11-07T12:14:06.400Z,85.19
2017-11-07T12:15:06.297Z,85.28
2017-11-07T12:16:06.277Z,84.62
2017-11-07T12:17:06.258Z,85.47
2017-11-07T12:18:06.240Z,85.19
2017-11-07T12:19:06.224Z,85.57
2017-11-07T12:20:06.185Z,86.43
2017-11-07T12:21:06.164Z,86.14
2017-11-07T12:22:06.149Z,86.14
2017-11-07T12:23:06.120Z,86.33
2017-11-07T12:24:06.104Z,86.24
2017-11-07T12:25:06.082Z,86.33
2017-11-07T12:26:06.067Z,86.71
2017-11-07T12:27:06.059Z,86.33
2017-11-07T12:28:06.024Z,86.61
2017-11-07T12:29:06.009Z,86.52
2017-11-07T12:30:06.003Z,86.24
2017-11-07T12:31:05.962Z,86.43
2017-11-07T12:32:05.937Z,86.61
2017-11-07T12:33:05.913Z,86.80
2017-11-07T12:34:05.896Z,86.80
2017-11-07T12:35:05.864Z,86.90
2017-11-07T12:36:05.853Z,87.09
2017-11-07T12:37:05.877Z,87.66
2017-11-07T12:38:05.813Z,87.95
2017-11-07T12:39:05.786Z,87.85
2017-11-07T12:40:05.764Z,87.85
2017-11-07T12:41:05.744Z,87.85
2017-11-07T12:42:05.714Z,88.04
2017-11-07T12:43:05.687Z,87.85
2017-11-07T12:44:05.676Z,88.33
2017-11-07T12:45:05.656Z,88.42
2017-11-07T12:46:05.628Z,87.95
2017-11-07T12:47:05.618Z,88.61
2017-11-07T12:48:05.598Z,88.52
2017-11-07T12:49:05.573Z,88.90
2017-11-07T12:50:05.576Z,88.90
2017-11-07T12:51:05.521Z,89.00
2017-11-07T12:52:05.508Z,88.85